Terminal Aerodrome Forecast
Issued by NWS

Home | Current Version | Previous Version | Text Only | Print | Product List | Glossary On
Versions: 1 2 3 4 5 6 7 8 9 10 11 12 13
886
FTUS45 KPSR 271726
TAFIPL
TAF
KIPL 271726Z 2718/2818 15006KT P6SM VCSH BKN060 OVC100
      TEMPO 2718/2722 -SHRA
     FM272300 24010G16KT P6SM -SHRA BKN060 OVC080
      TEMPO 2804/2808 18009KT
     FM280800 25010KT P6SM SCT060 BKN100=

USA.gov is the U.S. government's official web portal to all federal, state and local government web resources and services.